San Zanut, Italy

2:27 AM CEST on April 30, 2017 (GMT +0200)
Ronchi Dei Legionari | | Change Station

Elev 39 ft 45.82 °N, 13.48 °E | Updated 7 minutes ago

Clear
Clear
46 °F
Feels Like 42 °F
N
8
Wind Variable Wind from East

Today
High -- | Low -- °F
--% Chance of Precip.
Yesterday
High -- | Low -- °F
Precip. -- in
Pressure 30.04 in
Visibility 6.2 miles
Clouds Few 7100 ft
Windchill 42 °F
Dew Point 37 °F
Humidity 71%
Rainfall 0.00 in
Snow Depth Not available.
5:55 AM 8:12 PM
Waxing Crescent, 17% visible
METAR LIPQ 300020Z AUTO 09007KT 9999 FEW071/// 08/03 Q1017
Pressure 30.04 in
Visibility 6.2 miles
Clouds Few 7100 ft
Windchill 42 °F
Dew Point 37 °F
Humidity 71%
Rainfall 0.00 in
Snow Depth Not available.
5:55 AM 8:12 PM
Waxing Crescent, 17% visible
METAR LIPQ 300020Z AUTO 09007KT 9999 FEW071/// 08/03 Q1017

Get Severe Weather Alerts

Thanks for signing up!

Be on the lookout for a verification email in your inbox.

You'll start receiving the daily forecast at 8 AM.

×

10-Day Weather Forecast

×

Almanac

Astronomy

Apr. 30, 2017 Rise Set
Actual Time
Civil Twilight
Nautical Twilight
Astronomical Twilight
Moon
Length of Visible Light
Length of Day
Tomorrow will be .
, % of the Moon is Illuminated

Today's Extremes

Country Highs Country Lows

Community

WunderPhotos

WunderBlog® & News

Nearby

Air Quality

  Air Quality AQ Index Pollutant
Not available.

Snow Depth

Station Depth Elevation

Earthquake Activity

City Distance Mag. Time & Date
Minimum magnitude displayed is 2.5.

Coastal Water Temperatures

Place Temperature

Stations

Nearby Weather Stations

Station Location Temp. Windchill Dew Point Humidity Wind Precip. Elev Updated Type